createdAt,value
2022-12-20T00:00:14.688Z,11.26
2022-12-20T00:01:16.859Z,11.47
2022-12-20T00:02:15.597Z,11.37
2022-12-20T00:03:17.569Z,11.17
2022-12-20T00:04:17.634Z,11.47
2022-12-20T00:05:16.160Z,11.02
2022-12-20T00:06:16.474Z,10.87
2022-12-20T00:07:16.795Z,10.78
2022-12-20T00:08:19.931Z,10.75
2022-12-20T00:09:17.375Z,10.84
2022-12-20T00:10:20.537Z,11.05
2022-12-20T00:11:17.944Z,11.22
2022-12-20T00:12:18.283Z,11.27
2022-12-20T00:13:18.586Z,11.07
2022-12-20T00:14:20.768Z,10.82
2022-12-20T00:15:19.183Z,11.23
2022-12-20T00:16:21.360Z,11.25
2022-12-20T00:17:19.779Z,11.55
2022-12-20T00:18:20.097Z,11.17
2022-12-20T00:19:20.415Z,11.26
2022-12-20T00:20:22.618Z,11.35
2022-12-20T00:21:23.025Z,11.00
2022-12-20T00:22:21.276Z,11.08
2022-12-20T00:23:21.607Z,11.15
2022-12-20T00:24:26.381Z,11.40
2022-12-20T00:25:23.135Z,10.94
2022-12-20T00:26:23.488Z,11.26
2022-12-20T00:27:23.712Z,11.43
2022-12-20T00:28:23.096Z,11.41
2022-12-20T00:29:25.289Z,11.80
2022-12-20T00:30:23.705Z,11.36
2022-12-20T00:31:25.913Z,11.32
2022-12-20T00:32:24.297Z,11.45
2022-12-20T00:33:24.631Z,11.33
2022-12-20T00:34:24.931Z,11.70
2022-12-20T00:35:27.109Z,11.65
2022-12-20T00:36:27.321Z,11.40
2022-12-20T00:37:25.823Z,11.54
2022-12-20T00:38:26.153Z,11.62
2022-12-20T00:39:28.342Z,11.22
2022-12-20T00:40:26.753Z,11.40
2022-12-20T00:41:27.071Z,12.09
2022-12-20T00:42:29.272Z,11.80
2022-12-20T00:43:29.642Z,11.51
2022-12-20T00:44:27.927Z,11.32
2022-12-20T00:45:28.252Z,11.50
2022-12-20T00:46:28.630Z,11.51
2022-12-20T00:47:28.813Z,11.57
2022-12-20T00:48:31.006Z,11.68
2022-12-20T00:49:29.394Z,11.66
2022-12-20T00:50:31.566Z,11.88
2022-12-20T00:51:31.955Z,11.69
2022-12-20T00:52:31.959Z,11.95
2022-12-20T00:53:32.404Z,12.18
2022-12-20T00:54:32.307Z,11.91
2022-12-20T00:55:32.995Z,12.06
2022-12-20T00:56:33.185Z,11.94
2022-12-20T00:57:33.361Z,11.68
2022-12-20T00:58:33.552Z,11.72
2022-12-20T00:59:32.317Z,11.55
2022-12-20T01:00:32.646Z,11.54
2022-12-20T01:01:35.068Z,11.97
2022-12-20T01:02:35.258Z,12.09
2022-12-20T01:03:35.315Z,12.40
2022-12-20T01:04:35.416Z,12.35
2022-12-20T01:05:35.610Z,11.94
2022-12-20T01:06:36.347Z,11.35
2022-12-20T01:07:36.543Z,11.22
2022-12-20T01:08:36.732Z,11.45
2022-12-20T01:09:36.917Z,11.72
2022-12-20T01:10:37.112Z,11.59
2022-12-20T01:11:37.826Z,11.78
2022-12-20T01:12:37.977Z,11.77
2022-12-20T01:13:38.167Z,12.13
2022-12-20T01:14:38.546Z,12.02
2022-12-20T01:15:39.057Z,11.75
2022-12-20T01:16:39.339Z,11.94
2022-12-20T01:17:39.415Z,11.57
2022-12-20T01:18:39.717Z,11.63
2022-12-20T01:19:39.808Z,11.63
2022-12-20T01:20:40.502Z,12.22
2022-12-20T01:21:40.748Z,11.91
2022-12-20T01:22:45.664Z,11.72
2022-12-20T01:23:40.468Z,11.88
2022-12-20T01:24:39.723Z,11.83
2022-12-20T01:25:40.035Z,12.21
2022-12-20T01:26:42.193Z,12.28
2022-12-20T01:27:42.382Z,11.69
2022-12-20T01:28:40.912Z,11.72
2022-12-20T01:29:41.210Z,11.54
2022-12-20T01:30:41.545Z,11.62
2022-12-20T01:31:42.213Z,11.73
2022-12-20T01:32:44.037Z,12.03
2022-12-20T01:33:44.222Z,11.77
2022-12-20T01:34:44.400Z,11.78
2022-12-20T01:35:44.596Z,11.57
2022-12-20T01:36:44.274Z,11.94
2022-12-20T01:37:45.458Z,12.20
2022-12-20T01:38:45.618Z,12.18
2022-12-20T01:39:45.807Z,12.07
2022-12-20T01:40:46.487Z,11.78
2022-12-20T01:41:46.685Z,12.22
2022-12-20T01:42:46.883Z,12.24
2022-12-20T01:43:47.072Z,12.13
2022-12-20T01:44:47.776Z,12.24
2022-12-20T01:45:46.217Z,12.13
2022-12-20T01:46:48.375Z,12.22
2022-12-20T01:47:46.797Z,12.57
2022-12-20T01:48:47.010Z,12.45
2022-12-20T01:49:47.335Z,12.46
2022-12-20T01:50:47.681Z,12.17
2022-12-20T01:51:47.995Z,12.13
2022-12-20T01:52:50.173Z,12.28
2022-12-20T01:53:48.591Z,11.97
2022-12-20T01:54:48.907Z,11.86
2022-12-20T01:55:49.224Z,11.59
2022-12-20T01:56:49.543Z,12.17
2022-12-20T01:57:49.851Z,12.18
2022-12-20T01:58:52.038Z,12.31
2022-12-20T01:59:50.448Z,12.68
2022-12-20T02:00:50.805Z,12.47
2022-12-20T02:01:51.184Z,12.64
2022-12-20T02:02:51.526Z,12.80
2022-12-20T02:03:53.575Z,12.67
2022-12-20T02:04:51.866Z,12.72
2022-12-20T02:05:52.247Z,11.99
2022-12-20T02:06:52.441Z,11.91
2022-12-20T02:07:54.631Z,12.42
2022-12-20T02:08:54.863Z,12.61
2022-12-20T02:09:54.989Z,12.43
2022-12-20T02:10:53.644Z,12.55
2022-12-20T02:11:53.976Z,12.65
2022-12-20T02:12:54.279Z,12.06
2022-12-20T02:13:56.464Z,11.80
2022-12-20T02:14:54.884Z,12.22
2022-12-20T02:15:55.209Z,12.20
2022-12-20T02:16:55.558Z,12.43
2022-12-20T02:17:55.843Z,12.54
2022-12-20T02:18:58.038Z,12.76
2022-12-20T02:19:56.436Z,12.62
2022-12-20T02:20:58.670Z,12.58
2022-12-20T02:21:57.080Z,12.91
2022-12-20T02:22:59.266Z,12.40
2022-12-20T02:23:59.467Z,12.15
2022-12-20T02:24:58.004Z,12.17
2022-12-20T02:25:58.339Z,11.87
2022-12-20T02:26:58.693Z,11.70
2022-12-20T02:28:00.847Z,11.94
2022-12-20T02:29:01.070Z,11.78
2022-12-20T02:29:59.566Z,11.99
2022-12-20T02:30:59.888Z,11.66
2022-12-20T02:32:00.297Z,11.78
2022-12-20T02:33:02.429Z,11.63
2022-12-20T02:34:02.600Z,11.68
2022-12-20T02:35:01.153Z,11.97
2022-12-20T02:36:01.480Z,11.90
2022-12-20T02:37:01.793Z,11.83
2022-12-20T02:38:02.097Z,12.10
2022-12-20T02:39:02.420Z,12.22
2022-12-20T02:40:04.616Z,11.99
2022-12-20T02:41:03.036Z,12.04
2022-12-20T02:42:05.203Z,12.03
2022-12-20T02:43:05.396Z,12.13
2022-12-20T02:44:05.846Z,12.04
2022-12-20T02:45:06.037Z,11.84
2022-12-20T02:46:06.262Z,11.84
2022-12-20T02:47:06.444Z,11.83
2022-12-20T02:48:07.137Z,11.65
2022-12-20T02:49:05.557Z,11.91
2022-12-20T02:50:07.760Z,11.91
2022-12-20T02:51:07.945Z,11.63
2022-12-20T02:52:08.137Z,11.50
2022-12-20T02:53:08.349Z,11.62
2022-12-20T02:54:07.110Z,11.62
2022-12-20T02:55:09.337Z,11.54
2022-12-20T02:56:09.546Z,11.54
2022-12-20T02:57:07.944Z,11.66
2022-12-20T02:58:08.261Z,11.83
2022-12-20T02:59:08.583Z,11.51
2022-12-20T03:00:10.786Z,11.36
2022-12-20T03:01:10.979Z,11.36
2022-12-20T03:02:09.608Z,11.70
2022-12-20T03:03:09.977Z,11.86
2022-12-20T03:04:10.056Z,11.88
2022-12-20T03:05:12.243Z,11.94
2022-12-20T03:06:12.427Z,12.17
2022-12-20T03:07:10.955Z,11.94
2022-12-20T03:08:13.105Z,12.00
2022-12-20T03:09:13.300Z,11.90
2022-12-20T03:10:13.525Z,11.95
2022-12-20T03:11:14.193Z,11.72
2022-12-20T03:12:14.373Z,11.78
2022-12-20T03:13:14.561Z,11.81
2022-12-20T03:14:14.749Z,11.68
2022-12-20T03:15:15.451Z,11.54
2022-12-20T03:16:15.723Z,11.91
2022-12-20T03:17:15.947Z,11.90
2022-12-20T03:18:16.030Z,11.78
2022-12-20T03:19:16.206Z,11.84
2022-12-20T03:20:16.877Z,11.69
2022-12-20T03:21:17.040Z,11.60
2022-12-20T03:22:17.215Z,11.60
2022-12-20T03:23:17.409Z,11.68
2022-12-20T03:24:18.069Z,11.72
2022-12-20T03:25:18.387Z,11.90
2022-12-20T03:26:18.491Z,12.00
2022-12-20T03:27:17.067Z,11.81
2022-12-20T03:28:19.205Z,11.73
2022-12-20T03:29:17.479Z,12.27
2022-12-20T03:30:17.796Z,12.36
2022-12-20T03:31:18.176Z,11.97
2022-12-20T03:32:19.420Z,11.87
2022-12-20T03:33:18.670Z,11.97
2022-12-20T03:34:18.986Z,12.04
2022-12-20T03:35:19.302Z,12.07
2022-12-20T03:36:19.607Z,12.24
2022-12-20T03:37:21.798Z,12.49
2022-12-20T03:38:22.045Z,12.39
2022-12-20T03:39:20.436Z,12.40
2022-12-20T03:40:20.760Z,12.49
2022-12-20T03:41:21.074Z,12.55
2022-12-20T03:42:24.211Z,12.45
2022-12-20T03:43:23.465Z,12.40
2022-12-20T03:44:24.650Z,12.49
2022-12-20T03:45:23.132Z,12.55
2022-12-20T03:46:22.699Z,12.76
2022-12-20T03:47:24.841Z,12.36
2022-12-20T03:48:23.241Z,12.18
2022-12-20T03:49:25.459Z,12.29
2022-12-20T03:50:23.856Z,12.46
2022-12-20T03:51:25.118Z,12.57
2022-12-20T03:52:26.388Z,12.75
2022-12-20T03:53:24.792Z,12.15
2022-12-20T03:54:25.105Z,12.43
2022-12-20T03:55:25.399Z,12.43
2022-12-20T03:56:25.728Z,12.64
2022-12-20T03:57:26.038Z,12.40
2022-12-20T03:58:28.214Z,12.17
2022-12-20T03:59:26.602Z,12.20
2022-12-20T04:00:26.921Z,12.35
2022-12-20T04:01:27.351Z,12.50
2022-12-20T04:02:29.611Z,12.55
2022-12-20T04:03:29.673Z,12.45
2022-12-20T04:04:28.042Z,12.76
2022-12-20T04:05:28.386Z,13.19
2022-12-20T04:06:28.700Z,12.85
2022-12-20T04:07:29.031Z,12.82
2022-12-20T04:08:31.226Z,12.46
2022-12-20T04:09:29.616Z,12.37
2022-12-20T04:10:29.927Z,12.57
2022-12-20T04:11:30.235Z,12.64
2022-12-20T04:12:30.568Z,12.87
2022-12-20T04:13:32.765Z,12.45
2022-12-20T04:14:31.145Z,12.21
2022-12-20T04:15:31.499Z,12.58
2022-12-20T04:16:33.787Z,12.53
2022-12-20T04:17:31.974Z,12.58
2022-12-20T04:18:34.143Z,12.49
2022-12-20T04:19:32.537Z,12.50
2022-12-20T04:20:32.853Z,12.36
2022-12-20T04:21:33.220Z,12.45
2022-12-20T04:22:33.532Z,12.53
2022-12-20T04:23:33.833Z,12.82
2022-12-20T04:24:36.038Z,12.50
2022-12-20T04:25:34.427Z,12.40
2022-12-20T04:26:36.631Z,12.60
2022-12-20T04:27:35.027Z,12.64
2022-12-20T04:28:35.350Z,12.80
2022-12-20T04:29:35.680Z,12.61
2022-12-20T04:30:35.986Z,12.76
2022-12-20T04:31:38.254Z,12.49
2022-12-20T04:32:36.570Z,12.54
2022-12-20T04:33:36.885Z,12.58
2022-12-20T04:34:37.211Z,12.42
2022-12-20T04:35:37.516Z,12.67
2022-12-20T04:36:39.705Z,12.72
2022-12-20T04:37:38.105Z,12.73
2022-12-20T04:38:38.427Z,12.64
2022-12-20T04:39:38.738Z,12.58
2022-12-20T04:40:40.940Z,12.61
2022-12-20T04:41:41.122Z,12.25
2022-12-20T04:42:39.631Z,12.17
2022-12-20T04:43:41.831Z,12.27
2022-12-20T04:44:42.009Z,12.54
2022-12-20T04:45:42.203Z,12.55
2022-12-20T04:46:43.404Z,12.50
2022-12-20T04:47:43.099Z,12.49
2022-12-20T04:48:59.855Z,12.53
2022-12-20T04:49:44.523Z,12.47
2022-12-20T04:50:43.726Z,12.32
2022-12-20T04:51:43.918Z,12.45
2022-12-20T04:52:48.007Z,12.31
2022-12-20T04:53:42.946Z,12.20
2022-12-20T04:54:45.103Z,12.18
2022-12-20T04:55:45.293Z,12.15
2022-12-20T04:56:45.510Z,12.58
2022-12-20T04:57:45.685Z,12.79
2022-12-20T04:58:46.360Z,12.65
2022-12-20T04:59:47.991Z,12.68
2022-12-20T05:00:46.741Z,13.04
2022-12-20T05:01:47.005Z,12.76
2022-12-20T05:02:47.742Z,12.49
2022-12-20T05:03:47.932Z,12.18
2022-12-20T05:04:47.985Z,12.18
2022-12-20T05:05:46.494Z,12.13
2022-12-20T05:06:48.684Z,12.09
2022-12-20T05:07:48.880Z,11.72
2022-12-20T05:08:50.541Z,11.91
2022-12-20T05:09:47.717Z,11.80
2022-12-20T05:10:49.902Z,12.24
2022-12-20T05:11:48.355Z,12.06
2022-12-20T05:12:50.563Z,12.00
2022-12-20T05:13:48.817Z,12.24
2022-12-20T05:14:49.121Z,12.37
2022-12-20T05:15:51.358Z,12.54
2022-12-20T05:16:49.712Z,12.15
2022-12-20T05:17:51.890Z,12.10
2022-12-20T05:18:50.333Z,12.32
2022-12-20T05:19:52.563Z,12.25
2022-12-20T05:20:50.836Z,12.62
2022-12-20T05:21:53.036Z,12.39
2022-12-20T05:22:53.217Z,12.36
2022-12-20T05:23:52.351Z,12.47
2022-12-20T05:24:53.910Z,12.75
2022-12-20T05:25:52.315Z,12.53
2022-12-20T05:26:54.503Z,12.47
2022-12-20T05:27:52.903Z,12.94
2022-12-20T05:28:55.099Z,13.09
2022-12-20T05:29:53.508Z,13.01
2022-12-20T05:30:53.847Z,12.82
2022-12-20T05:31:54.193Z,12.50
2022-12-20T05:32:56.333Z,12.24
2022-12-20T05:33:54.637Z,12.10
2022-12-20T05:34:54.952Z,12.22
2022-12-20T05:35:55.280Z,12.36
2022-12-20T05:36:55.596Z,12.68
2022-12-20T05:37:55.918Z,12.79
2022-12-20T05:39:03.541Z,12.49
2022-12-20T05:39:57.525Z,12.42
2022-12-20T05:40:56.795Z,12.45
2022-12-20T05:41:57.006Z,12.24
2022-12-20T05:42:57.347Z,12.21
2022-12-20T05:43:59.502Z,12.35
2022-12-20T05:44:57.922Z,12.28
2022-12-20T05:45:59.177Z,11.86
2022-12-20T05:46:59.494Z,12.15
2022-12-20T05:47:58.852Z,12.29
2022-12-20T05:49:01.033Z,12.21
2022-12-20T05:50:01.214Z,12.22
2022-12-20T05:50:59.726Z,12.40
2022-12-20T05:52:00.113Z,12.15
2022-12-20T05:53:02.545Z,12.03
2022-12-20T05:54:03.526Z,11.91
2022-12-20T05:55:02.078Z,12.22
2022-12-20T05:56:01.217Z,12.57
2022-12-20T05:57:01.528Z,12.62
2022-12-20T05:58:01.837Z,12.18
2022-12-20T05:59:04.035Z,12.20
2022-12-20T06:00:02.408Z,12.45
2022-12-20T06:01:04.644Z,12.68
2022-12-20T06:02:03.218Z,12.49
2022-12-20T06:03:03.558Z,13.05
2022-12-20T06:04:05.544Z,13.09
2022-12-20T06:05:03.902Z,12.85
2022-12-20T06:06:07.403Z,12.85
2022-12-20T06:07:05.568Z,13.04
2022-12-20T06:08:04.915Z,12.87
2022-12-20T06:09:05.066Z,12.58
2022-12-20T06:10:07.261Z,12.68
2022-12-20T06:11:05.647Z,12.80
2022-12-20T06:12:07.825Z,12.67
2022-12-20T06:13:06.221Z,12.60
2022-12-20T06:14:09.861Z,12.53
2022-12-20T06:15:06.797Z,12.60
2022-12-20T06:16:07.113Z,12.62
2022-12-20T06:17:07.441Z,12.95
2022-12-20T06:18:07.756Z,13.70
2022-12-20T06:19:09.935Z,14.05
2022-12-20T06:20:10.149Z,13.95
2022-12-20T06:21:10.339Z,13.85
2022-12-20T06:22:08.980Z,12.90
2022-12-20T06:23:09.290Z,13.20
2022-12-20T06:24:11.492Z,13.05
2022-12-20T06:25:09.866Z,13.16
2022-12-20T06:26:12.055Z,13.70
2022-12-20T06:27:12.257Z,13.50
2022-12-20T06:28:12.422Z,13.35
2022-12-20T06:29:12.626Z,13.42
2022-12-20T06:30:13.310Z,13.81
2022-12-20T06:31:13.550Z,13.33
2022-12-20T06:32:13.713Z,13.33
2022-12-20T06:33:13.938Z,13.50
2022-12-20T06:34:14.122Z,13.86
2022-12-20T06:35:14.804Z,14.05
2022-12-20T06:36:15.003Z,13.33
2022-12-20T06:37:15.205Z,13.47
2022-12-20T06:38:15.387Z,13.52
2022-12-20T06:39:16.067Z,13.50
2022-12-20T06:40:16.260Z,13.52
2022-12-20T06:41:16.449Z,13.89
2022-12-20T06:42:18.097Z,13.65
2022-12-20T06:43:17.523Z,13.60
2022-12-20T06:44:17.196Z,13.33
2022-12-20T06:45:17.881Z,13.31
2022-12-20T06:46:16.367Z,13.33
2022-12-20T06:47:16.567Z,13.39
2022-12-20T06:48:16.756Z,13.35
2022-12-20T06:49:17.085Z,13.41
2022-12-20T06:50:19.264Z,13.18
2022-12-20T06:51:19.442Z,13.39
2022-12-20T06:52:19.624Z,13.11
2022-12-20T06:53:19.818Z,13.53
2022-12-20T06:54:20.526Z,13.78
2022-12-20T06:55:20.696Z,13.38
2022-12-20T06:56:19.200Z,13.31
2022-12-20T06:57:21.403Z,13.08
2022-12-20T06:58:21.574Z,13.37
2022-12-20T06:59:21.827Z,13.03
2022-12-20T07:00:21.983Z,13.33
2022-12-20T07:01:22.320Z,13.47
2022-12-20T07:02:27.038Z,13.16
2022-12-20T07:03:21.378Z,13.00
2022-12-20T07:04:23.476Z,13.30
2022-12-20T07:05:23.636Z,12.93
2022-12-20T07:06:23.832Z,13.20
2022-12-20T07:07:22.500Z,13.16
2022-12-20T07:08:24.679Z,13.25
2022-12-20T07:09:23.067Z,13.79
2022-12-20T07:10:25.246Z,13.74
2022-12-20T07:11:25.439Z,14.18
2022-12-20T07:12:23.867Z,13.83
2022-12-20T07:13:24.181Z,13.60
2022-12-20T07:14:24.513Z,13.53
2022-12-20T07:15:24.873Z,13.47
2022-12-20T07:16:27.084Z,13.72
2022-12-20T07:17:25.449Z,13.62
2022-12-20T07:18:27.629Z,13.52
2022-12-20T07:19:26.026Z,13.35
2022-12-20T07:20:26.382Z,13.25
2022-12-20T07:21:29.511Z,13.27
2022-12-20T07:22:26.915Z,13.05
2022-12-20T07:23:30.066Z,13.04
2022-12-20T07:24:29.302Z,13.25
2022-12-20T07:25:27.825Z,13.20
2022-12-20T07:26:28.150Z,12.86
2022-12-20T07:27:30.333Z,13.47
2022-12-20T07:28:30.536Z,13.35
2022-12-20T07:29:30.728Z,13.59
2022-12-20T07:30:29.386Z,13.18
2022-12-20T07:31:30.709Z,13.28
2022-12-20T07:32:31.945Z,13.35
2022-12-20T07:33:30.283Z,13.13
2022-12-20T07:34:30.611Z,13.35
2022-12-20T07:35:32.790Z,13.09
2022-12-20T07:36:32.137Z,13.39
2022-12-20T07:37:32.415Z,13.87
2022-12-20T07:38:32.747Z,13.63
2022-12-20T07:39:33.977Z,13.27
2022-12-20T07:40:34.177Z,13.13
2022-12-20T07:41:32.765Z,13.31
2022-12-20T07:42:38.061Z,13.54
2022-12-20T07:43:34.608Z,13.35
2022-12-20T07:44:35.504Z,13.23
2022-12-20T07:45:33.962Z,12.85
2022-12-20T07:46:34.228Z,13.01
2022-12-20T07:47:34.534Z,12.87
2022-12-20T07:48:34.887Z,12.76
2022-12-20T07:49:35.214Z,12.72
2022-12-20T07:50:37.398Z,12.86
2022-12-20T07:51:35.823Z,12.78
2022-12-20T07:52:36.154Z,12.87
2022-12-20T07:53:36.980Z,12.58
2022-12-20T07:54:36.813Z,12.64
2022-12-20T07:55:37.186Z,12.76
2022-12-20T07:56:41.550Z,12.91
2022-12-20T07:57:37.727Z,13.23
2022-12-20T07:58:38.069Z,13.47
2022-12-20T07:59:38.458Z,13.56
2022-12-20T08:00:40.605Z,13.99
2022-12-20T08:01:40.998Z,13.95
2022-12-20T08:02:39.380Z,13.83
2022-12-20T08:03:39.718Z,13.25
2022-12-20T08:04:39.940Z,13.47
2022-12-20T08:05:43.573Z,13.41
2022-12-20T08:06:40.445Z,13.47
2022-12-20T08:07:42.581Z,13.75
2022-12-20T08:08:42.781Z,13.68
2022-12-20T08:09:42.960Z,13.86
2022-12-20T08:10:43.163Z,13.25
2022-12-20T08:11:43.430Z,13.30
2022-12-20T08:12:43.867Z,13.31
2022-12-20T08:13:46.456Z,13.47
2022-12-20T08:14:44.259Z,13.19
2022-12-20T08:15:44.449Z,13.35
2022-12-20T08:16:45.162Z,12.94
2022-12-20T08:17:45.282Z,13.12
2022-12-20T08:18:45.450Z,13.18
2022-12-20T08:19:45.610Z,13.46
2022-12-20T08:20:46.300Z,13.28
2022-12-20T08:21:46.592Z,13.30
2022-12-20T08:22:45.053Z,13.81
2022-12-20T08:23:47.207Z,13.87
2022-12-20T08:24:45.628Z,13.53
2022-12-20T08:25:47.807Z,13.47
2022-12-20T08:26:46.232Z,13.42
2022-12-20T08:27:49.903Z,13.67
2022-12-20T08:28:50.091Z,13.93
2022-12-20T08:29:48.824Z,13.90
2022-12-20T08:30:48.630Z,13.46
2022-12-20T08:31:50.679Z,13.33
2022-12-20T08:32:49.869Z,13.28
2022-12-20T08:33:50.069Z,13.23
2022-12-20T08:34:50.248Z,13.39
2022-12-20T08:35:50.407Z,13.33
2022-12-20T08:36:51.092Z,13.25
2022-12-20T08:37:51.309Z,13.31
2022-12-20T08:38:51.552Z,13.52
2022-12-20T08:39:51.159Z,13.56
2022-12-20T08:40:52.347Z,13.52
2022-12-20T08:41:52.557Z,13.96
2022-12-20T08:42:52.742Z,13.67
2022-12-20T08:43:53.405Z,13.62
2022-12-20T08:44:51.705Z,13.79
2022-12-20T08:45:53.946Z,13.53
2022-12-20T08:46:52.216Z,13.54
2022-12-20T08:47:52.460Z,13.41
2022-12-20T08:48:52.696Z,13.09
2022-12-20T08:49:52.923Z,13.04
2022-12-20T08:50:55.590Z,13.09
2022-12-20T08:51:55.311Z,13.20
2022-12-20T08:52:53.759Z,13.15
2022-12-20T08:53:53.984Z,13.57
2022-12-20T08:54:54.338Z,13.42
2022-12-20T08:55:56.515Z,13.62
2022-12-20T08:56:56.719Z,13.33
2022-12-20T08:57:55.156Z,13.37
2022-12-20T08:58:55.405Z,13.89
2022-12-20T08:59:57.579Z,14.03
2022-12-20T09:00:55.916Z,14.12
2022-12-20T09:01:58.172Z,13.68
2022-12-20T09:02:56.686Z,14.03
2022-12-20T09:04:00.160Z,13.74
2022-12-20T09:04:56.895Z,13.68
2022-12-20T09:05:57.128Z,13.75
2022-12-20T09:06:59.315Z,13.78
2022-12-20T09:07:59.458Z,14.23
2022-12-20T09:08:57.928Z,14.00
2022-12-20T09:10:00.040Z,14.18
2022-12-20T09:10:58.470Z,14.11
2022-12-20T09:12:00.742Z,13.93
2022-12-20T09:12:59.046Z,14.44
2022-12-20T09:13:59.271Z,14.28
2022-12-20T09:14:59.631Z,13.93
2022-12-20T09:15:59.909Z,13.86
2022-12-20T09:17:02.045Z,13.96
2022-12-20T09:18:00.501Z,13.90
2022-12-20T09:19:05.561Z,13.95
2022-12-20T09:20:00.972Z,14.03
2022-12-20T09:21:01.207Z,13.65
2022-12-20T09:22:01.442Z,13.87
2022-12-20T09:23:03.951Z,13.83
2022-12-20T09:24:02.016Z,14.45
2022-12-20T09:25:04.220Z,14.10
2022-12-20T09:26:02.497Z,14.28
2022-12-20T09:27:02.753Z,14.11
2022-12-20T09:28:04.922Z,14.23
2022-12-20T09:29:05.222Z,14.20
2022-12-20T09:30:04.353Z,14.12
2022-12-20T09:31:03.882Z,14.28
2022-12-20T09:32:05.922Z,14.28
2022-12-20T09:33:08.606Z,14.29
2022-12-20T09:34:07.589Z,14.20
2022-12-20T09:35:06.699Z,14.59
2022-12-20T09:36:06.854Z,14.55
2022-12-20T09:37:05.409Z,14.86
2022-12-20T09:38:07.586Z,14.86
2022-12-20T09:39:07.773Z,14.45
2022-12-20T09:40:06.199Z,14.08
2022-12-20T09:41:06.459Z,13.56
2022-12-20T09:42:06.663Z,14.04
2022-12-20T09:43:08.862Z,14.10
2022-12-20T09:44:09.040Z,14.43
2022-12-20T09:45:07.496Z,14.25
2022-12-20T09:46:07.746Z,14.17
2022-12-20T09:47:10.883Z,14.41
2022-12-20T09:48:08.675Z,14.03
2022-12-20T09:49:10.552Z,14.05
2022-12-20T09:51:24.474Z,13.89
2022-12-20T09:52:26.668Z,13.95
2022-12-20T09:53:24.965Z,13.96
2022-12-20T09:54:25.201Z,13.78
2022-12-20T09:55:25.451Z,13.95
2022-12-20T09:56:25.661Z,13.81
2022-12-20T09:57:27.854Z,14.28
2022-12-20T09:58:28.066Z,13.95
2022-12-20T09:59:28.258Z,14.28
2022-12-20T10:00:26.791Z,14.53
2022-12-20T10:01:31.220Z,14.25
2022-12-20T10:03:28.721Z,13.89
2022-12-20T10:04:31.349Z,14.15
2022-12-20T10:05:28.219Z,14.30
2022-12-20T10:06:28.315Z,13.93
2022-12-20T10:07:28.558Z,14.26
2022-12-20T10:08:28.783Z,14.30
2022-12-20T10:09:31.006Z,14.15
2022-12-20T10:10:31.170Z,14.59
2022-12-20T10:11:34.419Z,14.22
2022-12-20T10:12:31.778Z,14.59
2022-12-20T10:13:31.975Z,14.55
2022-12-20T10:14:33.156Z,14.23
2022-12-20T10:15:33.431Z,14.10
2022-12-20T10:16:31.999Z,13.77
2022-12-20T10:17:32.801Z,14.04
2022-12-20T10:18:31.528Z,14.14
2022-12-20T10:19:31.757Z,14.28
2022-12-20T10:20:33.955Z,14.44
2022-12-20T10:21:32.275Z,14.53
2022-12-20T10:22:32.474Z,14.58
2022-12-20T10:23:35.610Z,15.14
2022-12-20T10:24:33.046Z,14.65
2022-12-20T10:25:36.211Z,14.88
2022-12-20T10:26:34.316Z,14.54
2022-12-20T10:27:34.718Z,14.44
2022-12-20T10:28:36.219Z,13.95
2022-12-20T10:29:35.297Z,14.00
2022-12-20T10:30:36.573Z,13.53
2022-12-20T10:31:36.936Z,14.04
2022-12-20T10:32:36.956Z,14.17
2022-12-20T10:33:37.155Z,14.04
2022-12-20T10:34:39.113Z,13.74
2022-12-20T10:35:39.033Z,14.03
2022-12-20T10:36:38.210Z,13.81
2022-12-20T10:37:44.356Z,13.90
2022-12-20T10:38:37.984Z,13.77
2022-12-20T10:39:39.200Z,13.89
2022-12-20T10:41:18.659Z,14.07
2022-12-20T10:41:38.949Z,14.30
2022-12-20T10:42:40.136Z,14.45
2022-12-20T10:43:40.336Z,14.29
2022-12-20T10:44:40.488Z,14.55
2022-12-20T10:45:40.655Z,14.33
2022-12-20T10:46:41.427Z,14.11
2022-12-20T10:47:41.547Z,14.08
2022-12-20T10:48:40.023Z,14.18
2022-12-20T10:49:42.157Z,14.15
2022-12-20T10:50:42.346Z,14.22
2022-12-20T10:51:42.573Z,14.65
2022-12-20T10:52:42.716Z,13.96
2022-12-20T10:53:42.798Z,14.37
2022-12-20T10:54:43.684Z,14.26
2022-12-20T10:55:43.744Z,14.47
2022-12-20T10:56:43.934Z,14.66
2022-12-20T10:57:44.124Z,14.55
2022-12-20T10:58:44.831Z,14.29
2022-12-20T10:59:46.464Z,14.18
2022-12-20T11:00:43.418Z,14.33
2022-12-20T11:01:45.655Z,14.53
2022-12-20T11:02:45.903Z,14.89
2022-12-20T11:03:46.033Z,14.72
2022-12-20T11:04:46.312Z,14.82
2022-12-20T11:05:46.307Z,14.96
2022-12-20T11:06:46.943Z,14.68
2022-12-20T11:08:08.584Z,14.35
2022-12-20T11:08:51.500Z,14.48
2022-12-20T11:09:46.873Z,14.96
2022-12-20T11:10:48.086Z,14.84
2022-12-20T11:11:48.252Z,15.28
2022-12-20T11:12:48.863Z,15.90
2022-12-20T11:13:47.071Z,15.24
2022-12-20T11:14:49.236Z,14.77
2022-12-20T11:15:47.593Z,15.17
2022-12-20T11:16:49.722Z,15.44
2022-12-20T11:17:48.037Z,15.03
2022-12-20T11:18:50.210Z,14.60
2022-12-20T11:19:50.393Z,14.33
2022-12-20T11:20:48.825Z,14.63
2022-12-20T11:21:51.014Z,14.85
2022-12-20T11:22:49.307Z,14.77
2022-12-20T11:23:51.486Z,15.07
2022-12-20T11:24:51.647Z,14.82
2022-12-20T11:25:50.084Z,14.78
2022-12-20T11:26:52.276Z,14.68
2022-12-20T11:27:50.570Z,15.09
2022-12-20T11:28:50.809Z,15.15
2022-12-20T11:29:52.996Z,14.50
2022-12-20T11:30:53.251Z,14.54
2022-12-20T11:31:53.391Z,14.50
2022-12-20T11:32:51.855Z,15.11
2022-12-20T11:33:52.083Z,14.86
2022-12-20T11:34:52.309Z,14.91
2022-12-20T11:35:52.543Z,14.82
2022-12-20T11:36:52.792Z,14.85
2022-12-20T11:37:53.859Z,14.60
2022-12-20T11:38:53.332Z,14.65
2022-12-20T11:39:54.011Z,14.12
2022-12-20T11:40:53.797Z,14.29
2022-12-20T11:41:56.738Z,14.35
2022-12-20T11:42:54.280Z,14.79
2022-12-20T11:44:24.037Z,15.22
2022-12-20T11:45:05.131Z,14.88
2022-12-20T11:45:58.042Z,14.60
2022-12-20T11:46:57.265Z,14.43
2022-12-20T11:47:55.691Z,15.18
2022-12-20T11:48:55.915Z,15.06
2022-12-20T11:49:56.237Z,14.50
2022-12-20T11:50:56.416Z,14.12
2022-12-20T11:51:58.610Z,14.15
2022-12-20T11:52:56.912Z,14.53
2022-12-20T11:53:57.148Z,14.40
2022-12-20T11:54:57.374Z,14.59
2022-12-20T11:55:57.603Z,15.09
2022-12-20T11:56:59.793Z,14.68
2022-12-20T11:58:18.057Z,14.58
2022-12-20T11:58:59.433Z,15.03
2022-12-20T11:59:59.678Z,15.10
2022-12-20T12:00:58.984Z,14.60
2022-12-20T12:02:01.235Z,15.00
2022-12-20T12:02:59.528Z,15.06
2022-12-20T12:03:59.722Z,15.00
2022-12-20T12:05:00.086Z,15.29
2022-12-20T12:06:00.189Z,15.17
2022-12-20T12:07:00.423Z,15.15
2022-12-20T12:08:02.619Z,14.89
2022-12-20T12:09:00.909Z,14.84
2022-12-20T12:10:01.150Z,14.60
2022-12-20T12:11:01.380Z,14.53
2022-12-20T12:12:07.392Z,14.60
2022-12-20T12:13:04.799Z,14.69
2022-12-20T12:14:03.999Z,14.37
2022-12-20T12:15:02.425Z,14.70
2022-12-20T12:16:02.700Z,14.97
2022-12-20T12:17:02.959Z,14.70
2022-12-20T12:18:05.102Z,14.77
2022-12-20T12:19:05.272Z,14.85
2022-12-20T12:20:03.831Z,15.21
2022-12-20T12:21:08.997Z,14.91
2022-12-20T12:22:05.300Z,15.11
2022-12-20T12:23:06.474Z,15.37
2022-12-20T12:24:06.702Z,15.55
2022-12-20T12:25:06.886Z,15.76
2022-12-20T12:26:05.571Z,15.54
2022-12-20T12:27:08.014Z,15.02
2022-12-20T12:28:09.055Z,14.44
2022-12-20T12:29:08.187Z,14.48
2022-12-20T12:30:08.400Z,14.32
2022-12-20T12:31:08.575Z,14.37
2022-12-20T12:32:08.805Z,14.33
2022-12-20T12:33:08.958Z,14.40
2022-12-20T12:34:09.697Z,14.72
2022-12-20T12:35:09.836Z,14.20
2022-12-20T12:36:08.248Z,14.11
2022-12-20T12:37:08.483Z,14.62
2022-12-20T12:38:08.879Z,14.43
2022-12-20T12:39:09.116Z,14.72
2022-12-20T12:40:11.328Z,14.79
2022-12-20T12:41:11.514Z,14.72
2022-12-20T12:42:11.666Z,14.59
2022-12-20T12:43:11.823Z,14.32
2022-12-20T12:44:12.504Z,14.30
2022-12-20T12:45:10.812Z,14.10
2022-12-20T12:46:14.757Z,14.10
2022-12-20T12:47:13.184Z,14.15
2022-12-20T12:48:13.375Z,14.36
2022-12-20T12:49:13.557Z,14.22
2022-12-20T12:50:14.372Z,13.99
2022-12-20T12:51:14.382Z,13.96
2022-12-20T12:52:14.542Z,14.23
2022-12-20T12:53:14.219Z,14.54
2022-12-20T12:54:15.409Z,14.50
2022-12-20T12:55:15.579Z,14.82
2022-12-20T12:56:42.207Z,14.63
2022-12-20T12:57:15.387Z,14.28
2022-12-20T12:58:16.587Z,14.37